createdAt,value
2022-09-12T00:04:14.440Z,15.27
2022-09-12T00:09:23.470Z,15.25
2022-09-12T00:30:20.436Z,15.35
2022-09-12T00:40:44.391Z,15.34
2022-09-12T00:45:48.179Z,15.25
2022-09-12T00:56:17.531Z,15.31
2022-09-12T01:11:57.255Z,15.26
2022-09-12T01:17:00.204Z,15.17
2022-09-12T01:22:16.407Z,15.12
2022-09-12T01:27:49.478Z,15.09
2022-09-12T01:33:28.509Z,15.06
2022-09-12T01:38:40.324Z,15.02
2022-09-12T01:43:48.224Z,14.97
2022-09-12T01:48:57.595Z,14.92
2022-09-12T01:59:26.888Z,14.94
2022-09-12T02:04:34.376Z,14.85
2022-09-12T02:09:42.462Z,14.81
2022-09-12T02:20:46.505Z,14.82
2022-09-12T02:25:49.972Z,14.74
2022-09-12T02:31:00.825Z,14.71
2022-09-12T02:36:16.325Z,14.67
2022-09-12T02:46:49.899Z,14.63
2022-09-12T02:51:53.579Z,14.52
2022-09-12T02:56:56.467Z,14.46
2022-09-12T03:02:28.729Z,14.42
2022-09-12T03:07:53.570Z,14.40
2022-09-12T03:13:07.554Z,14.35
2022-09-12T03:23:46.340Z,14.36
2022-09-12T03:28:50.748Z,14.27
2022-09-12T03:33:53.454Z,14.21
2022-09-12T03:39:01.500Z,14.17
2022-09-12T03:49:32.403Z,14.16
2022-09-12T03:54:35.140Z,14.04
2022-09-12T03:59:37.926Z,14.00
2022-09-12T04:04:47.196Z,13.96
2022-09-12T04:09:49.972Z,13.95
2022-09-12T04:14:52.695Z,13.92
2022-09-12T04:20:00.800Z,13.90
2022-09-12T04:25:05.035Z,13.89
2022-09-12T04:30:15.919Z,13.86
2022-09-12T04:40:46.032Z,13.88
2022-09-12T04:45:49.206Z,13.80
2022-09-12T04:50:52.353Z,13.78
2022-09-12T05:01:37.040Z,13.85
2022-09-12T05:06:41.048Z,13.76
2022-09-12T05:12:03.746Z,13.75
2022-09-12T05:17:12.864Z,13.74
2022-09-12T05:22:15.655Z,13.76
2022-09-12T05:27:18.603Z,13.77
2022-09-12T05:32:26.880Z,13.82
2022-09-12T05:37:29.873Z,13.88
2022-09-12T05:42:32.599Z,13.93
2022-09-12T05:47:40.668Z,14.01
2022-09-12T05:52:43.478Z,14.11
2022-09-12T05:57:46.258Z,14.24
2022-09-12T06:02:58.273Z,14.36
2022-09-12T06:13:21.991Z,14.76
2022-09-12T06:18:24.813Z,14.87
2022-09-12T06:23:28.656Z,15.07
2022-09-12T06:28:38.804Z,15.28
2022-09-12T06:33:45.287Z,15.52
2022-09-12T06:38:48.337Z,15.75
2022-09-12T06:49:25.288Z,16.32
2022-09-12T06:59:49.628Z,16.80
2022-09-12T07:04:52.722Z,17.00
2022-09-12T07:09:55.441Z,17.22
2022-09-12T07:15:03.548Z,17.45
2022-09-12T07:20:07.263Z,17.72
2022-09-12T07:25:10.372Z,17.96
2022-09-12T07:30:19.830Z,18.24
2022-09-12T07:35:24.862Z,18.52
2022-09-12T07:40:27.655Z,18.83
2022-09-12T07:45:35.811Z,19.06
2022-09-12T07:50:40.956Z,19.32
2022-09-12T07:55:54.491Z,19.61
2022-09-12T08:01:09.532Z,19.98
2022-09-12T08:11:30.058Z,20.59
2022-09-12T08:16:39.794Z,20.97
2022-09-12T08:21:42.664Z,21.29
2022-09-12T08:26:45.527Z,21.49
2022-09-12T08:31:57.179Z,21.87
2022-09-12T08:47:49.333Z,22.34
2022-09-12T08:52:56.951Z,22.60
2022-09-12T09:03:48.680Z,23.59
2022-09-12T09:14:56.464Z,24.48
2022-09-12T09:20:18.576Z,24.56
2022-09-12T09:25:24.886Z,24.59
2022-09-12T09:30:27.880Z,24.56
2022-09-12T09:35:45.705Z,24.50
2022-09-12T09:40:59.604Z,24.45
2022-09-12T09:46:02.472Z,24.30
2022-09-12T09:56:37.396Z,24.33
2022-09-12T10:01:46.366Z,24.17
2022-09-12T10:12:31.818Z,24.20
2022-09-12T10:17:44.955Z,24.07
2022-09-12T10:22:49.863Z,23.97
2022-09-12T10:28:01.992Z,23.86
2022-09-12T10:33:09.341Z,23.72
2022-09-12T10:38:18.722Z,23.59
2022-09-12T10:43:35.995Z,23.54
2022-09-12T10:54:04.772Z,24.34
2022-09-12T10:59:25.953Z,24.69
2022-09-12T11:04:47.725Z,25.10
2022-09-12T11:10:04.057Z,25.58
2022-09-12T11:15:24.841Z,26.10
2022-09-12T11:20:54.209Z,26.49
2022-09-12T11:26:15.399Z,26.77
2022-09-12T11:31:58.484Z,26.90
2022-09-12T11:37:18.217Z,27.01
2022-09-12T11:53:17.331Z,27.20
2022-09-12T11:58:25.966Z,27.14
2022-09-12T12:03:36.174Z,27.26
2022-09-12T12:08:47.652Z,27.42
2022-09-12T12:13:55.587Z,27.61
2022-09-12T12:19:01.122Z,27.60
2022-09-12T12:24:16.580Z,27.47
2022-09-12T12:29:43.386Z,27.52
2022-09-12T12:34:48.655Z,27.60
2022-09-12T12:40:09.456Z,27.77
2022-09-12T12:45:49.434Z,27.86
2022-09-12T12:50:52.255Z,27.97
2022-09-12T13:01:23.291Z,28.04
2022-09-12T13:06:36.165Z,27.99
2022-09-12T13:11:41.700Z,28.05
2022-09-12T13:17:03.237Z,28.09
2022-09-12T13:22:09.440Z,28.18
2022-09-12T13:27:20.247Z,28.13
2022-09-12T13:32:28.585Z,28.03
2022-09-12T13:43:16.407Z,27.93
2022-09-12T13:53:47.124Z,27.66
2022-09-12T13:58:54.394Z,27.43
2022-09-12T14:14:55.282Z,27.12
2022-09-12T14:19:58.420Z,26.80
2022-09-12T14:30:31.488Z,26.49
2022-09-12T14:35:34.707Z,26.31
2022-09-12T14:40:43.198Z,26.23
2022-09-12T14:45:55.267Z,26.17
2022-09-12T14:50:58.972Z,26.12
2022-09-12T15:17:53.594Z,25.84
2022-09-12T15:23:02.086Z,25.66
2022-09-12T15:28:14.141Z,25.53
2022-09-12T15:33:18.095Z,25.43
2022-09-12T15:49:11.996Z,25.09
2022-09-12T15:59:46.071Z,24.95
2022-09-12T16:04:48.981Z,24.82
2022-09-12T16:09:51.697Z,24.73
2022-09-12T16:15:00.540Z,24.64
2022-09-12T16:20:03.818Z,24.57
2022-09-12T16:30:40.353Z,24.42
2022-09-12T16:35:43.113Z,24.39
2022-09-12T16:40:47.147Z,24.33
2022-09-12T16:46:02.014Z,24.26
2022-09-12T16:51:09.722Z,24.18
2022-09-12T16:56:13.067Z,24.09
2022-09-12T17:17:19.068Z,23.47
2022-09-12T17:22:22.600Z,23.25
2022-09-12T17:27:25.629Z,23.09
2022-09-12T17:32:34.288Z,22.95
2022-09-12T17:37:37.058Z,22.79
2022-09-12T17:42:39.771Z,22.59
2022-09-12T17:53:05.647Z,22.33
2022-09-12T17:58:08.523Z,22.09
2022-09-12T18:03:11.535Z,21.94
2022-09-12T18:08:20.705Z,21.72
2022-09-12T18:13:23.473Z,21.55
2022-09-12T18:18:26.386Z,21.37
2022-09-12T18:28:57.585Z,21.15
2022-09-12T18:44:41.897Z,20.69
2022-09-12T18:49:45.681Z,20.51
2022-09-12T18:54:48.366Z,20.37
2022-09-12T18:59:56.587Z,20.25
2022-09-12T19:10:19.124Z,20.05
2022-09-12T19:15:22.584Z,19.89
2022-09-12T19:20:25.433Z,19.76
2022-09-12T19:25:33.465Z,19.65
2022-09-12T19:30:36.267Z,19.53
2022-09-12T19:35:39.009Z,19.37
2022-09-12T19:40:56.820Z,19.23
2022-09-12T19:46:00.451Z,19.10
2022-09-12T19:51:05.156Z,18.97
2022-09-12T19:56:16.167Z,18.84
2022-09-12T20:01:20.496Z,18.75
2022-09-12T20:11:41.975Z,18.59
2022-09-12T20:16:44.869Z,18.42
2022-09-12T20:21:47.817Z,18.30
2022-09-12T20:26:55.864Z,18.19
2022-09-12T20:37:18.355Z,17.99
2022-09-12T20:42:21.302Z,17.82
2022-09-12T20:47:24.260Z,17.74
2022-09-12T20:52:32.475Z,17.62
2022-09-12T20:57:36.091Z,17.52
2022-09-12T21:07:57.974Z,17.38
2022-09-12T21:13:00.865Z,17.23
2022-09-12T21:18:03.593Z,17.14
2022-09-12T21:23:12.956Z,17.06
2022-09-12T21:28:18.494Z,16.99
2022-09-12T21:38:40.903Z,16.92
2022-09-12T21:43:45.577Z,16.80
2022-09-12T21:48:48.411Z,16.74
2022-09-12T21:59:20.123Z,16.69
2022-09-12T22:04:23.727Z,16.55
2022-09-12T22:14:53.101Z,16.48
2022-09-12T22:20:02.825Z,16.41
2022-09-12T22:30:34.354Z,16.43
2022-09-12T22:35:37.358Z,16.35
2022-09-12T22:40:40.300Z,16.33
2022-09-12T22:45:48.369Z,16.32
2022-09-12T22:50:52.322Z,16.34
2022-09-12T23:01:14.241Z,16.38
2022-09-12T23:06:17.540Z,16.31
2022-09-12T23:11:21.030Z,16.30
2022-09-12T23:16:30.276Z,16.31
2022-09-12T23:21:33.053Z,16.35
2022-09-12T23:26:36.035Z,16.36
2022-09-12T23:31:45.098Z,16.37
2022-09-12T23:36:48.063Z,16.38
2022-09-12T23:52:29.545Z,16.46
2022-09-12T23:57:33.630Z,16.39
